Startpagina
METAR-TAF:

METAR-TAF

Vliegvelden :

Reims, Frankrijk

breedte: 49-12-31N, lengte: 004-09-24E, hoogte: 95 m

Actueel weer

Dit bericht is 20 minuten geleden gemaakt, om 23:30 UTC
Wind 7 kt uit het noordnoordwesten
Temperatuur -2°C
Vochtigheid 86%
Druk 1005 hPa
Zicht: 6000 m
Gebroken wolken op 1300 ft
Geheel bewolkt op 4400 ft

METAR: LFQA 232330Z AUTO 34007KT 6000 BKN013 OVC044 M02/M04 Q1005

Tijdstip: 00:50 (23:50 UTC)


TAF: ontbreekt

Waarnemingen en weersverwachtingen van meer dan 4000 vliegvelden (METAR en TAF).

De beschikbare stations zijn de gele en rode punten op de kaart.

Ga met uw muis naar het station om de naam te zien.

Klik dan om waarnemingen en weersverwachtingen te zien.

kaart wijzigen: klik op de groene knoppen met een zwart kruis om in te zoomen, op de groene knop met een streepje om uit te zoomen of op de groene pijlen voor aangrenzende kaarten.


METAR-TAF: